This is the latest recevied weather packets stored in our database for station/object LZ1PDB-12. If no packets are shown the sender has not sent any weather packets the latest 1 day(s).
| Time | Temp. | Humidity | Pressure | Rain* | Wind** | Luminosity | Snow |
|---|---|---|---|---|---|---|---|
| 1778098968 | 19.44° C | 37% | 1019.6 hPa | - | - | - | - |
| 1778098068 | 19.44° C | 36% | 1019.6 hPa | - | - | - | - |
| 1778097167 | 20° C | 35% | 1019.5 hPa | - | - | - | - |
| 1778094466 | 20.56° C | 33% | 1019 hPa | - | - | - | - |
| 1778092664 | 20.56° C | 33% | 1018.7 hPa | - | - | - | - |
| 1778090863 | 21.11° C | 36% | 1018.3 hPa | - | - | - | - |
| 1778088162 | 21.67° C | 34% | 1017.9 hPa | - | - | - | - |
| 1778087262 | 22.22° C | 33% | 1017.9 hPa | - | - | - | - |
| 1778085456 | 22.78° C | 32% | 1017.8 hPa | - | - | - | - |
| 1778084556 | 23.33° C | 31% | 1017.8 hPa | - | - | - | - |
| 1778083656 | 23.33° C | 32% | 1017.7 hPa | - | - | - | - |
| 1778080242 | 23.89° C | 27% | 1018.1 hPa | - | - | - | - |
| 1778076450 | 24.44° C | 28% | 1018.2 hPa | - | - | - | - |
| 1778075548 | 24.44° C | 26% | 1018.2 hPa | - | - | - | - |
| 1778071947 | 23.89° C | 27% | 1018.5 hPa | - | - | - | - |
| 1778071047 | 24.44° C | 26% | 1018.8 hPa | - | - | - | - |
| 1778069246 | 22.78° C | 29% | 1018.9 hPa | - | - | - | - |
| 1778068346 | 23.89° C | 29% | 1019.2 hPa | - | - | - | - |
| 1778064744 | 22.78° C | 36% | 1019.8 hPa | - | - | - | - |
| 1778063844 | 24.44° C | 33% | 1019.9 hPa | - | - | - | - |
| 1778062043 | 22.78° C | 37% | 1020.2 hPa | - | - | - | - |
| 1778061143 | 21.67° C | 38% | 1020.4 hPa | - | - | - | - |
| 1778060242 | 22.22° C | 36% | 1020.6 hPa | - | - | - | - |
| 1778059342 | 21.67° C | 38% | 1020.5 hPa | - | - | - | - |
| 1778058442 | 17.78° C | 45% | 1020.6 hPa | - | - | - | - |
* Rain since midnight (hover to see other rain measurements)
** Current wind speed in m/s (hover to see current wind gust speed)